Terminal Aerodrome Forecast
Issued by NWS Charleston, WV

Current Version | Previous Version | Graphics & Text | Print | Product List | Glossary On
Versions: 1 2 3 4 5 6 7 8 9 10 11 12 13 14 15 16 17 18 19 20 21 22 23
175
FTUS41 KRLX 301733
TAFEKN
TAF
KEKN 301733Z 3018/0118 30003KT P6SM OVC090
     FM302000 17007KT 5SM SHRA OVC020
     FM302300 17008KT 2SM SHRA OVC014
     FM010100 16008G15KT 4SM -SHRA OVC017
     FM010300 15009G16KT P6SM -SHRA OVC017
     FM011100 19008KT P6SM -SHRA OVC021
     FM011600 23007KT 6SM -SHRA VCTS OVC018CB=

USA.gov is the U.S. government's official web portal to all federal, state and local government web resources and services.